sensor_id;sensor_type;location;lat;lon;timestamp;pressure;altitude;pressure_sealevel;temperature;humidity
65997;BME280;52765;52.258;21.052;2023-03-25T00:01:13;99428.94;;;11.20;100.00
65997;BME280;52765;52.258;21.052;2023-03-25T00:03:40;99416.81;;;11.16;100.00
65997;BME280;52765;52.258;21.052;2023-03-25T00:06:07;99419.72;;;11.14;100.00
65997;BME280;52765;52.258;21.052;2023-03-25T00:08:33;99417.69;;;11.16;100.00
65997;BME280;52765;52.258;21.052;2023-03-25T00:11:00;99421.56;;;11.14;100.00
65997;BME280;52765;52.258;21.052;2023-03-25T00:13:27;99415.25;;;11.06;100.00
65997;BME280;52765;52.258;21.052;2023-03-25T00:15:56;99411.78;;;10.98;100.00
65997;BME280;52765;52.258;21.052;2023-03-25T00:18:24;99428.50;;;10.93;100.00
65997;BME280;52765;52.258;21.052;2023-03-25T00:20:55;99427.00;;;10.90;100.00
65997;BME280;52765;52.258;21.052;2023-03-25T00:23:22;99414.56;;;10.89;100.00
65997;BME280;52765;52.258;21.052;2023-03-25T00:25:48;99420.94;;;10.88;100.00
65997;BME280;52765;52.258;21.052;2023-03-25T00:28:17;99424.47;;;10.89;100.00
65997;BME280;52765;52.258;21.052;2023-03-25T00:30:43;99421.97;;;10.87;100.00
65997;BME280;52765;52.258;21.052;2023-03-25T00:33:10;99413.41;;;10.84;100.00
65997;BME280;52765;52.258;21.052;2023-03-25T00:35:39;99422.63;;;10.89;100.00
65997;BME280;52765;52.258;21.052;2023-03-25T00:38:09;99421.19;;;10.79;100.00
65997;BME280;52765;52.258;21.052;2023-03-25T00:40:35;99427.34;;;10.72;100.00
65997;BME280;52765;52.258;21.052;2023-03-25T00:43:02;99431.50;;;10.75;100.00
65997;BME280;52765;52.258;21.052;2023-03-25T00:45:28;99428.44;;;10.78;100.00
65997;BME280;52765;52.258;21.052;2023-03-25T00:47:54;99422.41;;;10.76;100.00
65997;BME280;52765;52.258;21.052;2023-03-25T00:50:20;99426.28;;;10.73;100.00
65997;BME280;52765;52.258;21.052;2023-03-25T00:52:49;99432.91;;;10.71;100.00
65997;BME280;52765;52.258;21.052;2023-03-25T00:55:16;99430.91;;;10.65;100.00
65997;BME280;52765;52.258;21.052;2023-03-25T00:57:41;99425.88;;;10.62;100.00
65997;BME280;52765;52.258;21.052;2023-03-25T01:00:10;99424.75;;;10.56;100.00
65997;BME280;52765;52.258;21.052;2023-03-25T01:02:37;99428.69;;;10.45;100.00
65997;BME280;52765;52.258;21.052;2023-03-25T01:05:07;99427.38;;;10.41;100.00
65997;BME280;52765;52.258;21.052;2023-03-25T01:07:35;99429.03;;;10.42;100.00
65997;BME280;52765;52.258;21.052;2023-03-25T01:10:01;99423.47;;;10.44;100.00
65997;BME280;52765;52.258;21.052;2023-03-25T01:12:26;99422.66;;;10.43;100.00
65997;BME280;52765;52.258;21.052;2023-03-25T01:14:53;99428.84;;;10.44;100.00
65997;BME280;52765;52.258;21.052;2023-03-25T01:17:19;99431.72;;;10.42;100.00
65997;BME280;52765;52.258;21.052;2023-03-25T01:19:48;99428.03;;;10.43;100.00
65997;BME280;52765;52.258;21.052;2023-03-25T01:22:14;99429.94;;;10.34;100.00
65997;BME280;52765;52.258;21.052;2023-03-25T01:24:40;99426.75;;;10.31;100.00
65997;BME280;52765;52.258;21.052;2023-03-25T01:27:05;99427.56;;;10.31;100.00
65997;BME280;52765;52.258;21.052;2023-03-25T01:29:31;99419.50;;;10.31;100.00
65997;BME280;52765;52.258;21.052;2023-03-25T01:31:57;99427.75;;;10.30;100.00
65997;BME280;52765;52.258;21.052;2023-03-25T01:34:22;99432.47;;;10.28;100.00
65997;BME280;52765;52.258;21.052;2023-03-25T01:36:48;99429.47;;;10.23;100.00
65997;BME280;52765;52.258;21.052;2023-03-25T01:39:22;99417.72;;;10.15;100.00
65997;BME280;52765;52.258;21.052;2023-03-25T01:41:49;99413.91;;;10.10;100.00
65997;BME280;52765;52.258;21.052;2023-03-25T01:46:47;99415.13;;;9.99;100.00
65997;BME280;52765;52.258;21.052;2023-03-25T01:49:22;99420.03;;;9.95;100.00
65997;BME280;52765;52.258;21.052;2023-03-25T01:52:14;99414.00;;;9.93;100.00
65997;BME280;52765;52.258;21.052;2023-03-25T01:54:38;99411.28;;;9.93;100.00
65997;BME280;52765;52.258;21.052;2023-03-25T01:57:05;99411.47;;;9.92;100.00
65997;BME280;52765;52.258;21.052;2023-03-25T01:59:36;99409.47;;;9.86;100.00
65997;BME280;52765;52.258;21.052;2023-03-25T02:02:04;99421.91;;;9.87;100.00
65997;BME280;52765;52.258;21.052;2023-03-25T02:04:39;99415.72;;;9.86;100.00
65997;BME280;52765;52.258;21.052;2023-03-25T02:07:08;99416.88;;;9.84;100.00
65997;BME280;52765;52.258;21.052;2023-03-25T02:09:37;99427.16;;;9.80;100.00
65997;BME280;52765;52.258;21.052;2023-03-25T02:12:03;99434.09;;;9.74;100.00
65997;BME280;52765;52.258;21.052;2023-03-25T02:14:35;99435.91;;;9.74;100.00
65997;BME280;52765;52.258;21.052;2023-03-25T02:28:53;99421.88;;;9.55;100.00
65997;BME280;52765;52.258;21.052;2023-03-25T02:39:32;99410.66;;;9.43;100.00
65997;BME280;52765;52.258;21.052;2023-03-25T02:42:17;99404.75;;;9.48;100.00
65997;BME280;52765;52.258;21.052;2023-03-25T02:44:46;99407.31;;;9.41;100.00
65997;BME280;52765;52.258;21.052;2023-03-25T02:47:18;99411.88;;;9.33;100.00
65997;BME280;52765;52.258;21.052;2023-03-25T02:49:50;99407.16;;;9.26;100.00
65997;BME280;52765;52.258;21.052;2023-03-25T02:52:34;99415.56;;;9.23;100.00
65997;BME280;52765;52.258;21.052;2023-03-25T02:55:04;99417.59;;;9.21;100.00
65997;BME280;52765;52.258;21.052;2023-03-25T02:57:37;99424.81;;;9.21;100.00
65997;BME280;52765;52.258;21.052;2023-03-25T03:00:05;99417.28;;;9.16;100.00
65997;BME280;52765;52.258;21.052;2023-03-25T03:02:58;99416.25;;;9.17;100.00
65997;BME280;52765;52.258;21.052;2023-03-25T03:05:32;99419.63;;;9.19;100.00
65997;BME280;52765;52.258;21.052;2023-03-25T03:27:57;99442.47;;;8.99;100.00
65997;BME280;52765;52.258;21.052;2023-03-25T03:33:41;99439.94;;;8.97;100.00
65997;BME280;52765;52.258;21.052;2023-03-25T03:36:12;99445.84;;;8.93;100.00
65997;BME280;52765;52.258;21.052;2023-03-25T03:38:43;99441.13;;;8.86;100.00
65997;BME280;52765;52.258;21.052;2023-03-25T03:41:13;99442.28;;;8.92;100.00
65997;BME280;52765;52.258;21.052;2023-03-25T03:44:08;99440.28;;;8.94;100.00
65997;BME280;52765;52.258;21.052;2023-03-25T03:47:23;99431.38;;;8.94;100.00
65997;BME280;52765;52.258;21.052;2023-03-25T03:49:28;99428.53;;;8.95;100.00
65997;BME280;52765;52.258;21.052;2023-03-25T03:52:02;99423.66;;;8.91;100.00
65997;BME280;52765;52.258;21.052;2023-03-25T03:54:48;99425.03;;;8.95;100.00
65997;BME280;52765;52.258;21.052;2023-03-25T03:57:24;99425.03;;;8.95;100.00
65997;BME280;52765;52.258;21.052;2023-03-25T04:00:17;99430.72;;;8.92;100.00
65997;BME280;52765;52.258;21.052;2023-03-25T04:02:47;99437.09;;;8.91;100.00
65997;BME280;52765;52.258;21.052;2023-03-25T04:05:18;99449.84;;;8.88;100.00
65997;BME280;52765;52.258;21.052;2023-03-25T04:10:32;99435.75;;;8.86;100.00
65997;BME280;52765;52.258;21.052;2023-03-25T04:13:09;99443.81;;;8.86;100.00
65997;BME280;52765;52.258;21.052;2023-03-25T04:15:40;99444.66;;;8.87;100.00
65997;BME280;52765;52.258;21.052;2023-03-25T04:18:09;99453.53;;;8.87;100.00
65997;BME280;52765;52.258;21.052;2023-03-25T04:20:36;99451.03;;;8.86;100.00
65997;BME280;52765;52.258;21.052;2023-03-25T04:23:03;99454.72;;;8.85;100.00
65997;BME280;52765;52.258;21.052;2023-03-25T04:25:29;99460.94;;;8.85;100.00
65997;BME280;52765;52.258;21.052;2023-03-25T04:27:57;99456.59;;;8.84;100.00
65997;BME280;52765;52.258;21.052;2023-03-25T04:30:24;99455.22;;;8.88;100.00
65997;BME280;52765;52.258;21.052;2023-03-25T04:32:50;99462.94;;;8.83;100.00
65997;BME280;52765;52.258;21.052;2023-03-25T04:35:17;99458.06;;;8.79;100.00
65997;BME280;52765;52.258;21.052;2023-03-25T04:37:44;99463.59;;;8.77;100.00
65997;BME280;52765;52.258;21.052;2023-03-25T04:40:17;99456.56;;;8.76;100.00
65997;BME280;52765;52.258;21.052;2023-03-25T04:42:46;99465.63;;;8.83;100.00
65997;BME280;52765;52.258;21.052;2023-03-25T04:45:22;99464.28;;;8.87;100.00
65997;BME280;52765;52.258;21.052;2023-03-25T04:47:49;99458.25;;;8.85;100.00
65997;BME280;52765;52.258;21.052;2023-03-25T04:50:28;99468.50;;;8.82;100.00
65997;BME280;52765;52.258;21.052;2023-03-25T04:52:55;99471.00;;;8.83;100.00
65997;BME280;52765;52.258;21.052;2023-03-25T04:55:22;99464.47;;;8.86;100.00
65997;BME280;52765;52.258;21.052;2023-03-25T04:57:50;99459.94;;;8.86;100.00
65997;BME280;52765;52.258;21.052;2023-03-25T05:00:19;99454.06;;;8.91;100.00
65997;BME280;52765;52.258;21.052;2023-03-25T05:02:48;99456.06;;;8.97;100.00
65997;BME280;52765;52.258;21.052;2023-03-25T05:05:16;99455.72;;;9.00;100.00
65997;BME280;52765;52.258;21.052;2023-03-25T05:07:52;99460.94;;;9.02;100.00
65997;BME280;52765;52.258;21.052;2023-03-25T05:10:21;99460.94;;;9.02;100.00
65997;BME280;52765;52.258;21.052;2023-03-25T05:12:48;99461.09;;;9.00;100.00
65997;BME280;52765;52.258;21.052;2023-03-25T05:15:16;99454.06;;;8.99;100.00
65997;BME280;52765;52.258;21.052;2023-03-25T05:17:43;99474.38;;;9.02;100.00
65997;BME280;52765;52.258;21.052;2023-03-25T05:20:09;99473.38;;;9.03;100.00
65997;BME280;52765;52.258;21.052;2023-03-25T05:22:36;99470.69;;;9.03;100.00
65997;BME280;52765;52.258;21.052;2023-03-25T05:25:07;99468.66;;;9.05;100.00
65997;BME280;52765;52.258;21.052;2023-03-25T05:27:34;99467.28;;;9.09;100.00
65997;BME280;52765;52.258;21.052;2023-03-25T05:30:00;99469.66;;;9.12;100.00
65997;BME280;52765;52.258;21.052;2023-03-25T05:32:27;99474.19;;;9.20;100.00
65997;BME280;52765;52.258;21.052;2023-03-25T05:35:05;99477.22;;;9.25;100.00
65997;BME280;52765;52.258;21.052;2023-03-25T05:37:32;99472.81;;;9.32;100.00
65997;BME280;52765;52.258;21.052;2023-03-25T05:39:57;99479.56;;;9.28;100.00
65997;BME280;52765;52.258;21.052;2023-03-25T05:42:23;99475.84;;;9.29;100.00
65997;BME280;52765;52.258;21.052;2023-03-25T05:44:50;99484.59;;;9.39;100.00
65997;BME280;52765;52.258;21.052;2023-03-25T05:47:21;99492.66;;;9.39;100.00
65997;BME280;52765;52.258;21.052;2023-03-25T05:49:48;99490.63;;;9.41;100.00
65997;BME280;52765;52.258;21.052;2023-03-25T05:52:14;99481.91;;;9.31;100.00
65997;BME280;52765;52.258;21.052;2023-03-25T05:54:41;99483.22;;;9.43;100.00
65997;BME280;52765;52.258;21.052;2023-03-25T05:57:07;99493.47;;;9.48;100.00
65997;BME280;52765;52.258;21.052;2023-03-25T05:59:34;99490.28;;;9.53;100.00
65997;BME280;52765;52.258;21.052;2023-03-25T06:02:07;99491.25;;;9.60;100.00
65997;BME280;52765;52.258;21.052;2023-03-25T06:04:36;99491.91;;;9.62;100.00
65997;BME280;52765;52.258;21.052;2023-03-25T06:07:09;99481.50;;;9.59;100.00
65997;BME280;52765;52.258;21.052;2023-03-25T06:09:41;99487.56;;;9.69;100.00
65997;BME280;52765;52.258;21.052;2023-03-25T06:12:21;99481.97;;;9.79;100.00
65997;BME280;52765;52.258;21.052;2023-03-25T06:14:47;99491.19;;;9.85;100.00
65997;BME280;52765;52.258;21.052;2023-03-25T06:17:19;99497.25;;;9.87;100.00
65997;BME280;52765;52.258;21.052;2023-03-25T06:19:50;99485.81;;;9.85;100.00
65997;BME280;52765;52.258;21.052;2023-03-25T06:22:16;99490.16;;;9.86;100.00
65997;BME280;52765;52.258;21.052;2023-03-25T06:24:44;99490.88;;;9.88;100.00
65997;BME280;52765;52.258;21.052;2023-03-25T06:27:15;99494.53;;;9.95;100.00
65997;BME280;52765;52.258;21.052;2023-03-25T06:29:42;99481.94;;;9.87;100.00
65997;BME280;52765;52.258;21.052;2023-03-25T06:32:10;99489.31;;;9.93;100.00
65997;BME280;52765;52.258;21.052;2023-03-25T06:34:37;99492.53;;;9.89;100.00
65997;BME280;52765;52.258;21.052;2023-03-25T06:37:03;99478.72;;;9.92;100.00
65997;BME280;52765;52.258;21.052;2023-03-25T06:39:30;99484.38;;;10.05;100.00
65997;BME280;52765;52.258;21.052;2023-03-25T06:41:57;99485.72;;;10.09;100.00
65997;BME280;52765;52.258;21.052;2023-03-25T06:44:22;99485.69;;;10.17;100.00
65997;BME280;52765;52.258;21.052;2023-03-25T06:46:48;99488.00;;;10.21;100.00
65997;BME280;52765;52.258;21.052;2023-03-25T06:49:14;99497.75;;;10.30;100.00
65997;BME280;52765;52.258;21.052;2023-03-25T06:51:39;99498.25;;;10.33;100.00
65997;BME280;52765;52.258;21.052;2023-03-25T06:54:05;99494.38;;;10.36;100.00
65997;BME280;52765;52.258;21.052;2023-03-25T06:56:30;99488.09;;;10.44;100.00
65997;BME280;52765;52.258;21.052;2023-03-25T06:58:56;99488.81;;;10.38;100.00
65997;BME280;52765;52.258;21.052;2023-03-25T07:01:21;99493.19;;;10.39;100.00
65997;BME280;52765;52.258;21.052;2023-03-25T07:03:47;99492.66;;;10.43;100.00
65997;BME280;52765;52.258;21.052;2023-03-25T07:06:18;99490.56;;;10.53;100.00
65997;BME280;52765;52.258;21.052;2023-03-25T07:08:44;99477.88;;;10.62;100.00
65997;BME280;52765;52.258;21.052;2023-03-25T07:11:11;99477.81;;;10.70;100.00
65997;BME280;52765;52.258;21.052;2023-03-25T07:13:38;99467.34;;;10.76;100.00
65997;BME280;52765;52.258;21.052;2023-03-25T07:16:04;99465.34;;;10.78;100.00
65997;BME280;52765;52.258;21.052;2023-03-25T07:18:36;99472.03;;;10.82;100.00
65997;BME280;52765;52.258;21.052;2023-03-25T07:21:11;99467.75;;;10.87;100.00
65997;BME280;52765;52.258;21.052;2023-03-25T07:23:36;99468.81;;;10.86;100.00
65997;BME280;52765;52.258;21.052;2023-03-25T07:26:02;99474.84;;;10.88;100.00
65997;BME280;52765;52.258;21.052;2023-03-25T07:28:27;99475.03;;;10.87;100.00
65997;BME280;52765;52.258;21.052;2023-03-25T07:30:53;99486.56;;;10.96;100.00
65997;BME280;52765;52.258;21.052;2023-03-25T07:33:19;99474.91;;;11.03;100.00
65997;BME280;52765;52.258;21.052;2023-03-25T07:35:44;99478.72;;;11.09;100.00
65997;BME280;52765;52.258;21.052;2023-03-25T07:38:10;99470.44;;;11.10;99.35
65997;BME280;52765;52.258;21.052;2023-03-25T07:40:36;99484.03;;;11.17;99.58
65997;BME280;52765;52.258;21.052;2023-03-25T07:43:02;99488.34;;;11.26;99.75
65997;BME280;52765;52.258;21.052;2023-03-25T07:45:27;99472.16;;;11.26;99.57
65997;BME280;52765;52.258;21.052;2023-03-25T07:47:53;99470.59;;;11.32;98.21
65997;BME280;52765;52.258;21.052;2023-03-25T07:50:22;99479.03;;;11.29;97.82
65997;BME280;52765;52.258;21.052;2023-03-25T07:52:48;99470.13;;;11.28;97.73
65997;BME280;52765;52.258;21.052;2023-03-25T07:55:14;99474.69;;;11.28;97.75
65997;BME280;52765;52.258;21.052;2023-03-25T07:57:44;99484.75;;;11.34;97.69
65997;BME280;52765;52.258;21.052;2023-03-25T08:00:10;99486.13;;;11.45;97.60
65997;BME280;52765;52.258;21.052;2023-03-25T08:02:37;99481.47;;;11.39;95.66
65997;BME280;52765;52.258;21.052;2023-03-25T08:05:03;99483.59;;;11.28;95.97
65997;BME280;52765;52.258;21.052;2023-03-25T08:07:30;99482.78;;;11.28;96.65
65997;BME280;52765;52.258;21.052;2023-03-25T08:09:56;99482.97;;;11.41;96.54
65997;BME280;52765;52.258;21.052;2023-03-25T08:12:25;99470.69;;;11.39;95.73
65997;BME280;52765;52.258;21.052;2023-03-25T08:14:51;99476.44;;;11.36;95.34
65997;BME280;52765;52.258;21.052;2023-03-25T08:17:16;99477.22;;;11.44;94.86
65997;BME280;52765;52.258;21.052;2023-03-25T08:19:42;99479.47;;;11.71;94.47
65997;BME280;52765;52.258;21.052;2023-03-25T08:22:08;99481.91;;;11.95;93.28
65997;BME280;52765;52.258;21.052;2023-03-25T08:24:33;99481.16;;;12.16;90.89
65997;BME280;52765;52.258;21.052;2023-03-25T08:26:59;99486.81;;;12.36;90.12
65997;BME280;52765;52.258;21.052;2023-03-25T08:29:28;99477.56;;;12.46;87.18
65997;BME280;52765;52.258;21.052;2023-03-25T08:31:54;99481.63;;;12.56;86.23
65997;BME280;52765;52.258;21.052;2023-03-25T08:34:21;99484.13;;;12.58;86.78
65997;BME280;52765;52.258;21.052;2023-03-25T08:36:47;99485.91;;;12.66;86.56
65997;BME280;52765;52.258;21.052;2023-03-25T08:39:13;99480.41;;;12.59;86.17
65997;BME280;52765;52.258;21.052;2023-03-25T08:41:42;99485.09;;;12.50;85.89
65997;BME280;52765;52.258;21.052;2023-03-25T08:44:08;99489.97;;;12.25;87.49
65997;BME280;52765;52.258;21.052;2023-03-25T08:46:34;99488.00;;;12.34;86.06
65997;BME280;52765;52.258;21.052;2023-03-25T08:49:01;99468.41;;;12.47;85.88
65997;BME280;52765;52.258;21.052;2023-03-25T08:51:27;99466.97;;;12.66;84.31
65997;BME280;52765;52.258;21.052;2023-03-25T08:53:53;99465.88;;;12.82;84.03
65997;BME280;52765;52.258;21.052;2023-03-25T08:56:18;99466.00;;;12.95;82.81
65997;BME280;52765;52.258;21.052;2023-03-25T08:58:44;99467.56;;;13.04;82.13
65997;BME280;52765;52.258;21.052;2023-03-25T09:01:10;99465.28;;;13.08;80.22
65997;BME280;52765;52.258;21.052;2023-03-25T09:03:36;99459.13;;;13.14;78.11
65997;BME280;52765;52.258;21.052;2023-03-25T09:06:07;99456.03;;;13.24;77.31
65997;BME280;52765;52.258;21.052;2023-03-25T09:08:33;99453.94;;;13.19;77.83
65997;BME280;52765;52.258;21.052;2023-03-25T09:10:59;99457.34;;;13.28;76.42
65997;BME280;52765;52.258;21.052;2023-03-25T09:13:25;99461.03;;;13.48;76.27
65997;BME280;52765;52.258;21.052;2023-03-25T09:15:50;99456.19;;;13.72;76.12
65997;BME280;52765;52.258;21.052;2023-03-25T09:18:16;99464.03;;;13.95;72.97
65997;BME280;52765;52.258;21.052;2023-03-25T09:20:42;99471.00;;;14.11;71.48
65997;BME280;52765;52.258;21.052;2023-03-25T09:23:08;99467.72;;;14.22;70.36
65997;BME280;52765;52.258;21.052;2023-03-25T09:25:37;99471.81;;;14.12;70.15
65997;BME280;52765;52.258;21.052;2023-03-25T09:28:05;99454.28;;;14.01;71.84
65997;BME280;52765;52.258;21.052;2023-03-25T09:30:39;99450.06;;;13.92;73.11
65997;BME280;52765;52.258;21.052;2023-03-25T09:33:06;99435.31;;;13.94;72.51
65997;BME280;52765;52.258;21.052;2023-03-25T09:35:31;99445.63;;;14.19;72.17
65997;BME280;52765;52.258;21.052;2023-03-25T09:37:57;99447.34;;;14.47;71.23
65997;BME280;52765;52.258;21.052;2023-03-25T09:40:23;99450.34;;;14.72;71.09
65997;BME280;52765;52.258;21.052;2023-03-25T09:45:46;99433.72;;;15.15;68.99
65997;BME280;52765;52.258;21.052;2023-03-25T09:48:37;99453.31;;;15.30;68.35
65997;BME280;52765;52.258;21.052;2023-03-25T09:51:10;99446.66;;;15.13;67.67
65997;BME280;52765;52.258;21.052;2023-03-25T09:53:53;99434.56;;;14.95;69.74
65997;BME280;52765;52.258;21.052;2023-03-25T09:56:23;99448.53;;;14.99;69.99
65997;BME280;52765;52.258;21.052;2023-03-25T09:58:55;99451.25;;;14.92;64.88
65997;BME280;52765;52.258;21.052;2023-03-25T10:07:26;99461.19;;;14.65;66.62
65997;BME280;52765;52.258;21.052;2023-03-25T10:17:51;99446.22;;;14.83;67.89
65997;BME280;52765;52.258;21.052;2023-03-25T10:25:38;99446.44;;;15.14;64.51
65997;BME280;52765;52.258;21.052;2023-03-25T10:28:11;99444.97;;;15.12;63.97
65997;BME280;52765;52.258;21.052;2023-03-25T10:30:43;99444.97;;;15.12;62.55
65997;BME280;52765;52.258;21.052;2023-03-25T10:35:58;99447.47;;;14.93;64.22
65997;BME280;52765;52.258;21.052;2023-03-25T10:38:25;99425.56;;;14.95;63.78
65997;BME280;52765;52.258;21.052;2023-03-25T10:40:58;99422.03;;;15.28;62.46
65997;BME280;52765;52.258;21.052;2023-03-25T10:43:37;99426.16;;;15.64;61.56
65997;BME280;52765;52.258;21.052;2023-03-25T10:48:52;99414.22;;;15.65;59.60
65997;BME280;52765;52.258;21.052;2023-03-25T10:51:25;99414.81;;;15.87;59.09
65997;BME280;52765;52.258;21.052;2023-03-25T10:53:52;99418.91;;;16.09;58.98
65997;BME280;52765;52.258;21.052;2023-03-25T10:56:23;99409.06;;;16.15;59.10
65997;BME280;52765;52.258;21.052;2023-03-25T10:58:55;99407.69;;;16.38;58.72
65997;BME280;52765;52.258;21.052;2023-03-25T11:01:37;99399.97;;;16.35;56.70
65997;BME280;52765;52.258;21.052;2023-03-25T11:04:06;99402.72;;;16.28;56.53
65997;BME280;52765;52.258;21.052;2023-03-25T11:06:35;99400.22;;;16.26;56.59
65997;BME280;52765;52.258;21.052;2023-03-25T11:11:34;99403.53;;;15.90;56.43
65997;BME280;52765;52.258;21.052;2023-03-25T11:14:00;99393.22;;;16.12;56.29
65997;BME280;52765;52.258;21.052;2023-03-25T11:16:32;99387.97;;;16.17;55.53
65997;BME280;52765;52.258;21.052;2023-03-25T11:19:00;99384.50;;;16.35;54.79
65997;BME280;52765;52.258;21.052;2023-03-25T11:21:31;99392.97;;;16.52;52.18
65997;BME280;52765;52.258;21.052;2023-03-25T11:23:59;99395.34;;;16.35;52.34
65997;BME280;52765;52.258;21.052;2023-03-25T11:26:35;99382.44;;;15.92;53.29
65997;BME280;52765;52.258;21.052;2023-03-25T11:31:35;99369.19;;;16.09;53.93
65997;BME280;52765;52.258;21.052;2023-03-25T11:34:20;99365.97;;;16.57;52.64
65997;BME280;52765;52.258;21.052;2023-03-25T11:37:01;99366.75;;;16.33;53.31
65997;BME280;52765;52.258;21.052;2023-03-25T11:39:33;99355.59;;;16.09;52.85
65997;BME280;52765;52.258;21.052;2023-03-25T11:42:08;99351.78;;;16.17;53.00
65997;BME280;52765;52.258;21.052;2023-03-25T11:44:36;99349.69;;;16.19;52.64
65997;BME280;52765;52.258;21.052;2023-03-25T11:47:05;99362.91;;;16.08;52.96
65997;BME280;52765;52.258;21.052;2023-03-25T11:49:36;99351.84;;;16.03;53.22
65997;BME280;52765;52.258;21.052;2023-03-25T11:52:17;99359.50;;;16.20;53.11
65997;BME280;52765;52.258;21.052;2023-03-25T11:54:44;99346.53;;;16.22;52.68
65997;BME280;52765;52.258;21.052;2023-03-25T11:57:13;99354.16;;;16.38;52.13
65997;BME280;52765;52.258;21.052;2023-03-25T11:59:45;99342.41;;;16.44;51.70
65997;BME280;52765;52.258;21.052;2023-03-25T12:02:22;99342.16;;;16.21;51.40
65997;BME280;52765;52.258;21.052;2023-03-25T12:04:59;99348.38;;;15.89;51.87
65997;BME280;52765;52.258;21.052;2023-03-25T12:07:25;99343.69;;;15.51;53.66
65997;BME280;52765;52.258;21.052;2023-03-25T12:10:03;99334.84;;;15.69;53.27
65997;BME280;52765;52.258;21.052;2023-03-25T12:12:32;99334.66;;;15.78;53.16
65997;BME280;52765;52.258;21.052;2023-03-25T12:26:18;99323.06;;;15.44;54.88
65997;BME280;52765;52.258;21.052;2023-03-25T12:32:07;99319.13;;;15.91;53.88
65997;BME280;52765;52.258;21.052;2023-03-25T12:46:01;99299.09;;;16.50;52.65
65997;BME280;52765;52.258;21.052;2023-03-25T12:48:47;99304.34;;;16.19;53.37
65997;BME280;52765;52.258;21.052;2023-03-25T12:51:32;99294.88;;;15.90;54.32
65997;BME280;52765;52.258;21.052;2023-03-25T12:59:56;99297.59;;;15.38;55.77
65997;BME280;52765;52.258;21.052;2023-03-25T13:05:23;99288.53;;;14.92;56.56
65997;BME280;52765;52.258;21.052;2023-03-25T13:08:31;99300.00;;;14.54;59.01
65997;BME280;52765;52.258;21.052;2023-03-25T13:11:14;99324.97;;;14.16;64.99
65997;BME280;52765;52.258;21.052;2023-03-25T13:13:43;99318.31;;;13.57;70.20
65997;BME280;52765;52.258;21.052;2023-03-25T13:16:15;99318.97;;;13.24;79.29
65997;BME280;52765;52.258;21.052;2023-03-25T13:18:47;99329.44;;;12.99;84.49
65997;BME280;52765;52.258;21.052;2023-03-25T13:21:23;99322.81;;;12.80;86.75
65997;BME280;52765;52.258;21.052;2023-03-25T13:23:59;99311.53;;;12.70;88.51
65997;BME280;52765;52.258;21.052;2023-03-25T13:26:29;99311.59;;;12.76;88.22
65997;BME280;52765;52.258;21.052;2023-03-25T13:29:01;99303.88;;;12.73;89.15
65997;BME280;52765;52.258;21.052;2023-03-25T13:31:43;99303.19;;;12.93;88.65
65997;BME280;52765;52.258;21.052;2023-03-25T13:34:30;99304.84;;;13.29;86.50
65997;BME280;52765;52.258;21.052;2023-03-25T13:39:55;99292.34;;;13.69;83.66
65997;BME280;52765;52.258;21.052;2023-03-25T13:42:36;99282.38;;;13.77;83.11
65997;BME280;52765;52.258;21.052;2023-03-25T13:45:04;99291.78;;;13.87;82.63
65997;BME280;52765;52.258;21.052;2023-03-25T13:47:36;99274.94;;;13.99;84.06
65997;BME280;52765;52.258;21.052;2023-03-25T13:50:17;99280.16;;;14.07;82.47
65997;BME280;52765;52.258;21.052;2023-03-25T13:52:49;99262.03;;;14.01;81.83
65997;BME280;52765;52.258;21.052;2023-03-25T13:55:24;99277.03;;;14.10;79.73
65997;BME280;52765;52.258;21.052;2023-03-25T14:13:53;99282.84;;;13.94;77.92
65997;BME280;52765;52.258;21.052;2023-03-25T14:16:26;99290.56;;;14.03;77.16
65997;BME280;52765;52.258;21.052;2023-03-25T14:19:03;99283.13;;;14.19;74.69
65997;BME280;52765;52.258;21.052;2023-03-25T14:21:33;99289.56;;;14.31;75.13
65997;BME280;52765;52.258;21.052;2023-03-25T14:24:15;99278.97;;;14.63;74.27
65997;BME280;52765;52.258;21.052;2023-03-25T14:26:48;99281.75;;;15.35;68.24
65997;BME280;52765;52.258;21.052;2023-03-25T14:34:27;99267.16;;;16.95;61.86
65997;BME280;52765;52.258;21.052;2023-03-25T14:44:34;99289.66;;;16.27;59.57
65997;BME280;52765;52.258;21.052;2023-03-25T14:55:17;99281.19;;;15.13;64.17
65997;BME280;52765;52.258;21.052;2023-03-25T14:57:44;99283.97;;;14.86;64.65
65997;BME280;52765;52.258;21.052;2023-03-25T15:00:25;99280.84;;;14.76;64.91
65997;BME280;52765;52.258;21.052;2023-03-25T15:03:10;99280.22;;;14.47;66.69
65997;BME280;52765;52.258;21.052;2023-03-25T15:05:37;99278.31;;;14.14;69.31
65997;BME280;52765;52.258;21.052;2023-03-25T15:10:38;99317.03;;;13.46;65.39
65997;BME280;52765;52.258;21.052;2023-03-25T15:15:58;99319.09;;;12.81;65.28
65997;BME280;52765;52.258;21.052;2023-03-25T15:21:13;99318.22;;;12.02;69.45
65997;BME280;52765;52.258;21.052;2023-03-25T15:23:43;99319.03;;;11.88;70.91
65997;BME280;52765;52.258;21.052;2023-03-25T15:26:30;99331.13;;;11.56;73.35
65997;BME280;52765;52.258;21.052;2023-03-25T15:29:36;99325.34;;;11.44;73.94
65997;BME280;52765;52.258;21.052;2023-03-25T15:32:17;99331.59;;;11.29;75.58
65997;BME280;52765;52.258;21.052;2023-03-25T15:37:20;99350.84;;;11.11;80.24
65997;BME280;52765;52.258;21.052;2023-03-25T15:48:23;99343.19;;;10.85;85.27
65997;BME280;52765;52.258;21.052;2023-03-25T15:53:53;99340.84;;;10.82;87.55
65997;BME280;52765;52.258;21.052;2023-03-25T15:56:29;99336.31;;;10.83;86.07
65997;BME280;52765;52.258;21.052;2023-03-25T16:02:32;99329.72;;;11.00;86.60
65997;BME280;52765;52.258;21.052;2023-03-25T16:04:56;99309.22;;;11.14;86.73